createdAt,value
2023-03-23T05:30:04.026Z,20.2592
2023-03-23T15:04:09.765Z,20.5970
2023-03-23T15:05:01.900Z,20.0999
2023-03-23T15:09:00.166Z,21.7796
2023-03-23T15:09:52.510Z,20.6587
2023-03-23T15:10:53.612Z,20.3497
2023-03-23T15:11:54.707Z,20.3425
2023-03-23T15:12:55.886Z,20.3974
2023-03-23T15:13:56.940Z,20.4489
2023-03-23T15:14:58.227Z,20.4717
2023-03-23T15:15:59.174Z,20.4413
2023-03-23T15:17:00.302Z,20.4547
2023-03-23T15:18:01.399Z,20.4678
2023-03-23T15:19:02.530Z,20.4481
2023-03-23T15:20:03.651Z,20.4892
2023-03-23T15:21:04.753Z,20.6079
2023-03-23T15:22:05.846Z,20.6595
2023-03-23T15:23:06.974Z,20.7147
2023-03-23T15:24:08.063Z,20.7620
2023-03-23T15:25:09.225Z,21.1771
2023-03-23T15:26:10.289Z,21.2613
2023-03-23T15:28:22.461Z,22.9305
2023-03-23T15:29:14.786Z,21.4781
2023-03-23T15:30:16.980Z,21.0107
2023-03-23T15:31:17.017Z,20.8150
2023-03-23T15:32:18.158Z,20.8365
2023-03-23T15:33:19.244Z,20.8495
2023-03-23T15:34:21.393Z,20.8731
2023-03-23T15:35:21.534Z,20.8579
2023-03-23T15:36:22.643Z,20.8380
2023-03-23T15:37:23.728Z,20.7920
2023-03-23T15:38:24.825Z,20.7410
2023-03-23T15:39:25.927Z,20.6909
2023-03-23T15:40:27.103Z,20.7135
2023-03-23T15:41:28.165Z,20.8328
2023-03-23T15:42:30.119Z,20.8450
2023-03-23T15:43:30.392Z,20.8285
2023-03-23T15:44:31.520Z,20.8501
2023-03-23T15:45:32.661Z,20.8674
2023-03-23T15:46:33.746Z,20.9304
2023-03-23T15:47:34.840Z,21.0284
2023-03-23T15:48:35.967Z,21.2272
2023-03-23T15:49:37.080Z,21.3517
2023-03-23T15:50:38.260Z,21.3433
2023-03-23T15:51:39.301Z,21.3238
2023-03-23T15:52:40.436Z,21.2131
2023-03-23T15:53:41.533Z,21.0839
2023-03-23T15:54:42.664Z,20.9167
2023-03-23T15:55:43.915Z,20.8448
2023-03-23T15:56:44.903Z,20.8745
2023-03-23T15:58:47.159Z,21.0771
2023-03-23T15:58:47.159Z,21.1812
2023-03-23T15:59:48.258Z,21.1732
2023-03-23T16:00:49.421Z,21.1498
2023-03-23T16:01:50.490Z,21.0871
2023-03-23T16:02:51.657Z,21.0989
2023-03-23T16:03:52.714Z,21.1239
2023-03-23T16:04:53.833Z,21.1385
2023-03-23T16:05:54.984Z,21.1451
2023-03-23T16:06:56.080Z,21.0853
2023-03-23T16:07:57.181Z,21.0851
2023-03-23T16:08:58.271Z,21.0374
2023-03-23T16:09:59.408Z,21.0001
2023-03-23T16:11:00.571Z,21.0122
2023-03-23T16:12:01.632Z,21.0547
2023-03-23T16:13:02.730Z,21.0824
2023-03-23T16:14:03.864Z,21.0945
2023-03-23T16:15:04.956Z,21.1397
2023-03-23T16:16:06.132Z,21.1825
2023-03-23T16:17:07.241Z,21.2295
2023-03-23T16:18:08.327Z,21.2151
2023-03-23T16:19:09.375Z,21.1453
2023-03-23T16:20:10.493Z,21.0664
2023-03-23T16:21:11.671Z,21.0804
2023-03-23T16:22:12.700Z,21.1151
2023-03-23T16:23:13.790Z,21.0976
2023-03-23T16:24:14.914Z,21.0491
2023-03-23T16:25:16.010Z,20.9725
2023-03-23T16:26:17.165Z,20.9623
2023-03-23T16:27:18.201Z,20.9501
2023-03-23T16:28:19.314Z,20.9183
2023-03-23T16:29:33.745Z,20.9006
2023-03-23T16:30:22.565Z,20.9076
2023-03-23T16:31:22.691Z,20.8828
2023-03-23T16:32:23.740Z,20.8764
2023-03-23T16:33:24.852Z,20.8573
2023-03-23T16:34:25.946Z,20.8583
2023-03-23T16:35:27.161Z,20.8402
2023-03-23T16:36:28.248Z,20.8193
2023-03-23T16:37:29.246Z,20.8109
2023-03-23T16:38:30.366Z,20.8072
2023-03-23T16:39:31.453Z,20.7953
2023-03-23T16:40:32.575Z,20.7981
2023-03-23T16:41:33.753Z,20.7932
2023-03-23T16:42:34.795Z,20.7901
2023-03-23T16:43:35.870Z,20.7891
2023-03-23T16:44:36.989Z,20.7948
2023-03-23T16:45:38.230Z,20.7827
2023-03-23T16:46:39.265Z,20.7729
2023-03-23T16:47:40.331Z,20.7607
2023-03-23T16:48:41.419Z,20.7503
2023-03-23T16:49:42.494Z,20.7507
2023-03-23T16:50:43.624Z,20.7112
2023-03-23T16:51:44.749Z,20.6913
2023-03-23T16:52:46.292Z,20.6903
2023-03-23T16:53:46.922Z,20.6999
2023-03-23T16:54:48.033Z,20.6878
2023-03-23T16:55:49.120Z,20.7039
2023-03-23T16:56:50.316Z,20.6784
2023-03-23T16:57:51.547Z,20.6568
2023-03-23T16:58:52.447Z,20.6387
2023-03-23T16:59:53.533Z,20.6531
2023-03-23T17:00:54.660Z,20.6355
2023-03-23T17:01:55.830Z,20.6383
2023-03-23T17:02:56.949Z,20.6340
2023-03-23T17:03:58.033Z,20.5935
2023-03-23T17:04:59.089Z,20.5619
2023-03-23T17:06:00.162Z,20.5753
2023-03-23T17:07:01.342Z,20.5794
2023-03-23T17:08:02.379Z,20.5726
2023-03-23T17:09:03.501Z,20.5703
2023-03-23T17:10:04.595Z,20.5794
2023-03-23T17:11:05.712Z,20.5724
2023-03-23T17:12:06.864Z,20.5775
2023-03-23T17:13:07.913Z,20.5925
2023-03-23T17:14:09.004Z,20.6046
2023-03-23T17:15:10.129Z,20.5913
2023-03-23T17:16:11.260Z,20.5769
2023-03-23T17:17:12.385Z,20.5777
2023-03-23T17:18:13.434Z,20.5668
2023-03-23T17:19:14.552Z,20.5582
2023-03-23T17:20:15.659Z,20.5603
2023-03-23T17:21:16.755Z,20.5508
2023-03-23T17:22:18.000Z,20.5192
2023-03-23T17:23:18.976Z,20.5001
2023-03-23T17:24:20.083Z,20.4785
2023-03-23T17:25:21.188Z,20.4830
2023-03-23T17:26:22.269Z,20.4664
2023-03-23T17:27:23.425Z,20.4446
2023-03-23T17:28:24.538Z,20.4448
2023-03-23T17:29:25.620Z,20.4397
2023-03-23T17:30:26.691Z,20.4381
2023-03-23T17:31:27.861Z,20.4339
2023-03-23T17:32:29.061Z,20.4424
2023-03-23T17:33:30.019Z,20.4417
2023-03-23T17:34:31.216Z,20.4374
2023-03-23T17:35:32.229Z,20.4298
2023-03-23T17:36:33.343Z,20.4409
2023-03-23T17:37:34.627Z,20.4487
2023-03-23T17:38:35.525Z,20.4465
2023-03-23T17:39:42.708Z,20.4403
2023-03-23T17:40:38.746Z,20.4378
2023-03-23T17:41:38.853Z,20.4378
2023-03-23T17:42:39.994Z,20.4231
2023-03-23T17:43:41.089Z,20.4142
2023-03-23T17:44:42.149Z,20.4173
2023-03-23T17:45:46.547Z,20.4144
2023-03-23T17:46:44.412Z,20.4245
2023-03-23T17:47:45.539Z,20.4553
2023-03-23T17:48:46.570Z,20.4539
2023-03-23T17:49:47.694Z,20.4656
2023-03-23T17:50:48.796Z,20.4459
2023-03-23T17:51:49.938Z,20.5021
2023-03-23T17:52:51.073Z,20.5044
2023-03-23T17:53:52.131Z,20.5083
2023-03-23T17:54:53.215Z,20.5032
2023-03-23T17:55:54.336Z,20.4952
2023-03-23T17:56:55.457Z,20.4865
2023-03-23T17:57:56.595Z,20.4746
2023-03-23T17:58:57.640Z,20.4744
2023-03-23T17:59:58.776Z,20.4678
2023-03-23T18:00:59.881Z,20.4756
2023-03-23T18:02:01.025Z,20.4847
2023-03-23T18:03:02.132Z,20.4982
2023-03-23T18:04:03.193Z,20.4976
2023-03-23T18:05:04.270Z,20.4913
2023-03-23T18:06:05.401Z,20.4917
2023-03-23T18:07:06.484Z,20.4750
2023-03-23T18:08:07.621Z,20.4697
2023-03-23T18:09:08.681Z,20.4658
2023-03-23T18:10:09.788Z,20.4528
2023-03-23T18:11:10.876Z,20.4623
2023-03-23T18:12:11.991Z,20.4717
2023-03-23T18:13:13.121Z,20.4724
2023-03-23T18:14:14.192Z,20.4660
2023-03-23T18:15:15.307Z,20.4843
2023-03-23T18:16:16.406Z,20.6455
2023-03-23T18:17:17.477Z,20.7552
2023-03-23T18:18:18.646Z,20.9031
2023-03-23T18:19:19.677Z,20.9555
2023-03-23T18:20:20.878Z,20.9321
2023-03-23T18:21:21.882Z,20.9900
2023-03-23T18:22:23.002Z,21.0381
2023-03-23T18:23:24.428Z,21.1120
2023-03-23T18:24:25.193Z,21.0950
2023-03-23T18:25:26.279Z,21.0964
2023-03-23T18:26:27.401Z,21.0734
2023-03-23T18:37:11.795Z,21.5011
2023-03-23T18:38:04.884Z,20.8185
2023-03-23T18:39:05.996Z,20.6496
2023-03-23T18:40:07.107Z,20.6864
2023-03-23T18:42:25.578Z,22.9370
2023-03-23T18:43:17.866Z,21.6559
2023-03-23T18:44:19.005Z,21.1498
2023-03-23T18:45:20.085Z,20.9401
2023-03-23T18:46:21.245Z,20.8674
2023-03-23T18:47:22.358Z,20.8294
2023-03-23T18:49:15.075Z,22.7762
2023-03-23T18:51:33.343Z,22.0848
2023-03-23T18:52:24.980Z,20.2152
2023-03-23T18:53:26.084Z,19.6639
2023-03-23T18:54:27.275Z,19.3379
2023-03-23T18:55:28.301Z,19.0879
2023-03-23T18:56:29.458Z,18.9119
2023-03-23T18:57:30.531Z,18.8472
2023-03-23T19:01:41.645Z,21.3802
2023-03-23T19:04:06.901Z,22.0291
2023-03-23T19:04:56.403Z,20.9193
2023-03-23T19:05:57.502Z,20.6420
2023-03-23T19:06:58.980Z,20.6406
2023-03-23T19:07:59.723Z,20.6965
2023-03-23T19:09:00.877Z,20.6887
2023-03-23T19:10:01.949Z,20.6965
2023-03-23T19:11:03.091Z,20.7059
2023-03-23T19:13:35.678Z,22.5343
2023-03-23T19:14:27.605Z,21.3632
2023-03-23T19:15:28.747Z,21.0500
2023-03-23T19:17:16.534Z,22.7380
2023-03-23T19:19:20.767Z,22.7174
2023-03-23T19:26:51.817Z,22.7718
2023-03-23T19:28:18.178Z,21.0820
2023-03-23T19:29:23.335Z,20.2762
2023-03-23T19:29:47.134Z,19.5757
2023-03-23T19:30:47.308Z,19.3395
2023-03-23T19:31:48.403Z,18.9994
2023-03-23T19:32:49.551Z,18.9357
2023-03-23T19:33:50.609Z,18.8453
2023-03-23T19:34:51.746Z,18.7461
2023-03-23T19:36:05.667Z,18.6099
2023-03-23T19:37:03.309Z,18.4084
2023-03-23T19:37:56.154Z,18.4065
2023-03-23T19:38:56.190Z,18.9340
2023-03-23T19:39:58.185Z,19.3839
2023-03-23T19:40:58.538Z,19.7625
2023-03-23T19:41:59.503Z,20.0032
2023-03-23T19:43:00.683Z,20.1416
2023-03-23T19:45:22.332Z,22.2135
2023-03-23T19:46:14.133Z,21.0330
2023-03-23T19:47:15.100Z,20.7115
2023-03-23T19:48:16.386Z,20.6139
2023-03-23T19:49:17.322Z,20.5935
2023-03-23T19:50:18.360Z,20.6174
2023-03-23T19:51:19.509Z,20.6665
2023-03-23T19:52:20.588Z,20.7712
2023-03-23T19:53:21.853Z,20.8263
2023-03-23T19:54:22.825Z,20.8478
2023-03-23T19:55:23.963Z,20.8480
2023-03-23T20:06:07.820Z,21.0313
2023-03-23T20:07:00.825Z,20.4647
2023-03-23T20:09:07.114Z,22.0844
2023-03-23T20:09:58.133Z,20.9605
2023-03-23T20:10:59.234Z,20.6355
2023-03-23T20:12:01.227Z,20.5430
2023-03-23T20:13:01.479Z,20.5362
2023-03-23T20:14:02.560Z,20.5459
2023-03-23T20:15:04.093Z,20.5471
2023-03-23T20:17:18.821Z,22.2276
2023-03-23T20:45:57.014Z,21.8486
2023-03-23T20:46:48.500Z,21.0915
2023-03-23T20:47:49.636Z,20.9434
2023-03-23T20:48:50.755Z,20.8891
2023-03-23T20:50:57.357Z,22.6865
2023-03-23T20:51:46.916Z,21.5240
2023-03-23T20:52:48.032Z,21.3304
2023-03-23T20:53:49.122Z,21.3250
2023-03-23T20:54:50.259Z,21.3505
2023-03-23T20:55:51.355Z,21.3805
2023-03-23T20:56:53.750Z,21.3803
2023-03-23T20:57:53.577Z,21.3912
2023-03-23T20:58:54.715Z,21.3694
2023-03-23T20:59:55.837Z,21.3690
2023-03-23T21:00:56.954Z,21.3794
2023-03-23T21:01:58.075Z,21.3988
2023-03-23T21:02:59.231Z,21.3905
2023-03-23T21:04:00.276Z,21.3836
2023-03-23T21:05:01.397Z,21.3712
2023-03-23T21:06:02.493Z,21.3661
2023-03-23T21:07:03.663Z,21.3667
2023-03-23T21:08:04.732Z,21.3860
2023-03-23T21:09:05.847Z,21.3698
2023-03-23T21:10:06.938Z,21.3242
2023-03-23T21:11:08.077Z,21.2714
2023-03-23T21:12:09.214Z,21.0062
2023-03-23T21:13:10.318Z,19.4361
2023-03-23T21:14:11.421Z,18.1765
2023-03-23T21:15:12.537Z,17.7178
2023-03-23T21:16:13.637Z,18.0886
2023-03-23T21:17:14.810Z,18.0424
2023-03-23T21:18:15.858Z,18.0997
2023-03-23T21:19:16.996Z,18.2767
2023-03-23T21:20:18.096Z,18.4756
2023-03-23T21:21:19.218Z,18.6335
2023-03-23T21:22:20.409Z,18.4474
2023-03-23T21:23:21.437Z,18.0711
2023-03-23T21:24:22.530Z,17.6710
2023-03-23T21:25:33.812Z,17.4348
2023-03-23T21:26:25.746Z,17.1346
2023-03-23T21:27:25.918Z,16.9237
2023-03-23T21:28:26.972Z,16.7824
2023-03-23T21:29:28.523Z,16.5595
2023-03-23T21:30:29.190Z,16.3352
2023-03-23T21:31:30.288Z,16.0396
2023-03-23T21:32:31.483Z,15.9338
2023-03-23T21:33:32.501Z,16.3672
2023-03-23T21:34:33.591Z,16.8043
2023-03-23T21:35:34.725Z,16.9812
2023-03-23T21:36:35.808Z,17.0849
2023-03-23T21:37:37.001Z,16.8826
2023-03-23T21:38:38.023Z,16.7444
2023-03-23T21:39:39.188Z,16.4252
2023-03-23T21:40:40.238Z,16.8688
2023-03-23T21:41:41.926Z,17.5876
2023-03-23T21:42:42.518Z,18.1446
2023-03-23T21:43:43.573Z,18.5961
2023-03-23T21:44:44.676Z,18.8915
2023-03-23T21:45:45.794Z,19.1031
2023-03-23T21:46:46.882Z,19.2775
2023-03-23T21:47:48.066Z,19.4067
2023-03-23T21:48:49.087Z,19.5028
2023-03-23T21:49:50.210Z,19.5963
2023-03-23T21:50:51.319Z,19.6612
2023-03-23T21:51:52.445Z,19.7218
2023-03-23T21:52:53.570Z,19.7738
2023-03-23T21:53:54.654Z,19.8477
2023-03-23T21:54:55.733Z,19.9705
2023-03-23T21:55:56.863Z,20.0533
2023-03-23T21:56:57.985Z,20.0839
2023-03-23T21:57:59.125Z,20.1075
2023-03-23T21:59:00.161Z,20.1217
2023-03-23T22:00:01.289Z,20.1521
2023-03-23T22:01:02.551Z,20.1838
2023-03-23T22:02:03.522Z,20.1819
2023-03-23T22:03:04.977Z,20.1560
2023-03-23T22:04:05.729Z,20.1671
2023-03-23T22:05:06.825Z,20.2209
2023-03-23T22:06:07.962Z,20.2497
2023-03-23T22:07:09.039Z,20.2372
2023-03-23T22:08:10.215Z,20.2698
2023-03-23T22:09:11.262Z,20.2932
2023-03-23T22:10:12.373Z,20.3181
2023-03-23T22:11:13.455Z,20.3415
2023-03-23T22:12:14.591Z,20.3672
2023-03-23T22:13:15.733Z,20.3777
2023-03-23T22:14:16.802Z,20.3908
2023-03-23T22:15:17.885Z,20.4044
2023-03-23T22:16:19.042Z,20.4079
2023-03-23T22:17:20.106Z,20.4126
2023-03-23T22:18:21.325Z,20.4313
2023-03-23T22:19:22.317Z,20.3998
2023-03-23T22:20:23.443Z,20.4212
2023-03-23T22:21:24.538Z,20.4270
2023-03-23T22:22:25.654Z,20.4407
2023-03-23T22:23:26.803Z,20.4567
2023-03-23T22:24:27.870Z,20.4592
2023-03-23T22:25:28.974Z,20.4748
2023-03-23T22:26:30.119Z,20.4662
2023-03-23T22:27:31.175Z,20.4746
2023-03-23T22:28:32.341Z,20.4769
2023-03-23T22:29:33.398Z,20.4674
2023-03-23T22:30:34.513Z,20.4837
2023-03-23T22:31:35.667Z,20.4775
2023-03-23T22:32:36.795Z,20.4715
2023-03-23T22:33:37.868Z,20.4841
2023-03-23T22:34:38.932Z,20.4894
2023-03-23T22:35:40.130Z,20.5034
2023-03-23T22:36:41.158Z,20.5208
2023-03-23T22:37:42.248Z,20.5284
2023-03-23T22:38:43.488Z,20.5233
2023-03-23T22:39:44.471Z,20.5288
2023-03-23T22:40:45.753Z,20.5243
2023-03-23T22:41:46.681Z,20.5268
2023-03-23T22:42:47.798Z,20.5262
2023-03-23T22:43:48.927Z,20.5307
2023-03-23T22:44:50.075Z,20.5171
2023-03-23T22:45:51.132Z,20.5348
2023-03-23T22:46:52.225Z,20.5566
2023-03-23T22:47:53.357Z,20.5527
2023-03-23T22:48:54.542Z,20.5586
2023-03-23T22:49:55.534Z,20.5656
2023-03-23T22:50:56.655Z,20.5753
2023-03-23T22:51:57.757Z,20.5670
2023-03-23T22:52:58.869Z,20.5730
2023-03-23T22:54:00.002Z,20.5802
2023-03-23T22:55:01.093Z,20.5810
2023-03-23T22:56:02.177Z,20.5712
2023-03-23T22:57:03.368Z,20.5652
2023-03-23T22:58:04.397Z,20.5560
2023-03-23T22:59:05.582Z,20.5557
2023-03-23T23:00:06.601Z,20.5666
2023-03-23T23:01:07.821Z,20.5699
2023-03-23T23:02:08.815Z,20.5666
2023-03-23T23:03:09.938Z,20.5726
2023-03-23T23:04:11.140Z,20.5845
2023-03-23T23:05:12.165Z,20.5853
2023-03-23T23:06:13.259Z,20.5849
2023-03-23T23:07:14.395Z,20.5833
2023-03-23T23:08:17.766Z,20.5814
2023-03-23T23:09:16.634Z,20.5804
2023-03-23T23:10:17.669Z,20.5857
2023-03-23T23:11:18.822Z,20.5757
2023-03-23T23:12:19.900Z,20.5518
2023-03-23T23:13:21.018Z,20.5504
2023-03-23T23:14:22.301Z,20.5408
2023-03-23T23:15:23.237Z,20.5416
2023-03-23T23:16:24.410Z,20.5346
2023-03-23T23:17:25.495Z,20.5327
2023-03-23T23:18:26.560Z,20.5338
2023-03-23T23:19:27.850Z,20.5323
2023-03-23T23:20:28.770Z,20.5321
2023-03-23T23:21:29.899Z,20.5317
2023-03-23T23:22:30.992Z,20.5338
2023-03-23T23:23:32.121Z,20.5319
2023-03-23T23:24:33.241Z,20.5418
2023-03-23T23:25:34.334Z,20.5459
2023-03-23T23:26:35.431Z,20.5471
2023-03-23T23:27:36.550Z,20.5434
2023-03-23T23:28:37.640Z,20.5457
2023-03-23T23:29:38.800Z,20.5525
2023-03-23T23:30:39.882Z,20.5512
2023-03-23T23:31:40.991Z,20.5514
2023-03-23T23:32:42.122Z,20.5572
2023-03-23T23:33:43.207Z,20.5619
2023-03-23T23:34:44.369Z,20.5617
2023-03-23T23:35:45.477Z,20.5662
2023-03-23T23:36:46.522Z,20.5621
2023-03-23T23:37:47.648Z,20.5783
2023-03-23T23:38:48.737Z,20.5769
2023-03-23T23:39:49.895Z,20.5804
2023-03-23T23:40:50.953Z,20.5970
2023-03-23T23:41:52.094Z,20.6040
2023-03-23T23:42:53.166Z,20.5905
2023-03-23T23:43:54.290Z,20.5894
2023-03-23T23:44:55.402Z,20.5866
2023-03-23T23:45:56.526Z,20.5841
2023-03-23T23:46:57.618Z,20.5952
2023-03-23T23:47:58.756Z,20.5923
2023-03-23T23:48:59.838Z,20.5872
2023-03-23T23:50:00.971Z,20.5890
2023-03-23T23:51:02.038Z,20.5993
2023-03-23T23:52:03.156Z,20.5946
2023-03-23T23:53:04.251Z,20.5962
2023-03-23T23:54:05.377Z,20.6030
2023-03-23T23:55:06.481Z,20.6065
2023-03-23T23:56:07.576Z,20.6094
2023-03-23T23:57:08.712Z,20.5999
2023-03-23T23:58:09.799Z,20.5960
2023-03-23T23:59:10.893Z,20.5905
